logo tempoitalia

Diretta Meteo Ponca City, Stati Uniti (USA)lunedì 31 agosto ore 00:53

Mappa
Sereno 30 °C Sereno 24 Ore: T.min 27 T.max 39
Ponente Sud-Ovest Km/h 16.7 Punto di rugiada: 16 °C Umidità: 42% Visibilità: 10 Km
Il sole sorge alle: 06:58 Il sole tramonta alle: 19:58
31 Agosto 2026 00:53 tempo osservato: Sereno Sereno 30 42 1013 vento: Nord SO 16.7
30 Agosto 2026 23:53 tempo osservato: Sereno Sereno 31 40 1012 vento: Nord S/SO 16.7
30 Agosto 2026 22:53 tempo osservato: Sereno Sereno 31 40 1012 vento: Nord S/SE 14.8
30 Agosto 2026 21:53 tempo osservato: Sereno Sereno 32 38 1011 vento: Nord N 0
30 Agosto 2026 20:53 tempo osservato: Sereno Sereno 33 36 1011 vento: Nord S/SE 14.8
30 Agosto 2026 19:53 tempo osservato: Sereno Sereno 34 34 1010 vento: Nord S 13
30 Agosto 2026 18:53 tempo osservato: Sereno Sereno 37 27 1010 vento: Nord S/SO 14.8
30 Agosto 2026 17:53 tempo osservato: Sereno Sereno 38 27 1010 vento: Nord SO 16.7
30 Agosto 2026 16:53 tempo osservato: Sereno Sereno 39 26 1010 vento: Nord S/SO 18.5
30 Agosto 2026 15:53 tempo osservato: Sereno Sereno 39 27 1011 vento: Nord S/SO 16.7
30 Agosto 2026 14:53 tempo osservato: Sereno Sereno 38 31 1011 vento: Nord S/SO 18.5
30 Agosto 2026 13:53 tempo osservato: Sereno Sereno 38 31 1012 vento: Nord SO 20.3
30 Agosto 2026 12:53 tempo osservato: Sereno Sereno 37 32 1012 vento: Nord SO 24
30 Agosto 2026 11:53 tempo osservato: Sereno Sereno 35 39 1014 vento: Nord SO 20.3
30 Agosto 2026 10:53 tempo osservato: Sereno Sereno 33 43 1014 vento: Nord SO 22.2
30 Agosto 2026 09:53 tempo osservato: Sereno Sereno 30 48 1014 vento: Nord S/SO 13
30 Agosto 2026 08:53 tempo osservato: Sereno Sereno 28 51 1014 vento: Nord SO 14.8
30 Agosto 2026 07:53 tempo osservato: Sereno Sereno 27 54 1014 vento: Nord SO 13
30 Agosto 2026 06:53 tempo osservato: Sereno Sereno 27 50 1014 vento: Nord S/SO 14.8
30 Agosto 2026 05:53 tempo osservato: Sereno Sereno 27 50 1014 vento: Nord S/SO 14.8
30 Agosto 2026 04:53 tempo osservato: Sereno Sereno 27 50 1014 vento: Nord S/SO 14.8
30 Agosto 2026 03:53 tempo osservato: Sereno Sereno 28 48 1013 vento: Nord S/SO 14.8
30 Agosto 2026 02:53 tempo osservato: Sereno Sereno 28 48 1013 vento: Nord S/SO 16.7
30 Agosto 2026 01:53 tempo osservato: Sereno Sereno 29 45 1013 vento: Nord S/SO 14.8